Time;durP1;ratioP1;P1;durP2;ratioP2;P2;SDS_P1;SDS_P2;PMS_P1;PMS_P2;Temp;Humidity;BMP_temperature;BMP_pressure;BME280_temperature;BME280_humidity;BME280_pressure;Samples;Min_cycle;Max_cycle;Signal;HPM_P1;HPM_P2
2023/01/03 00:00:43;;;;;;;27.92;13.77;;;3.60;99.90;;;;;;5082123;28;20479;-48
2023/01/03 00:03:13;;;;;;;30.48;13.82;;;3.30;99.90;;;;;;5074283;28;20032;-49
2023/01/03 00:05:41;;;;;;;32.40;13.45;;;3.20;99.90;;;;;;5071851;28;20052;-47
2023/01/03 00:08:07;;;;;;;30.55;13.60;;;3.30;99.90;;;;;;5071955;28;20488;-48
2023/01/03 00:10:33;;;;;;;28.20;14.20;;;3.50;99.90;;;;;;5071810;28;20075;-49
2023/01/03 00:12:59;;;;;;;29.45;12.88;;;3.40;99.90;;;;;;5071576;28;20059;-46
2023/01/03 00:15:24;;;;;;;25.65;12.25;;;3.10;99.90;;;;;;5079423;28;20127;-49
2023/01/03 00:17:51;;;;;;;25.52;12.80;;;2.80;99.90;;;;;;5071700;28;20503;-50
2023/01/03 00:20:17;;;;;;;28.95;13.43;;;2.90;99.90;;;;;;5071947;28;20131;-50
2023/01/03 00:22:43;;;;;;;26.02;13.15;;;2.90;99.90;;;;;;5071533;28;20040;-51
2023/01/03 00:25:09;;;;;;;30.05;13.05;;;3.30;99.90;;;;;;5071840;28;20048;-50
2023/01/03 00:27:34;;;;;;;28.15;12.52;;;2.70;99.90;;;;;;5070974;28;20164;-48
2023/01/03 00:30:00;;;;;;;26.58;12.70;;;3.30;99.90;;;;;;5075695;28;20055;-49
2023/01/03 00:32:26;;;;;;;29.65;13.45;;;2.80;99.90;;;;;;5071036;28;20052;-52
2023/01/03 00:34:51;;;;;;;25.50;13.02;;;2.70;99.90;;;;;;5071456;28;20413;-48
2023/01/03 00:37:17;;;;;;;30.35;13.25;;;2.90;99.90;;;;;;5070977;28;20040;-49
2023/01/03 00:39:43;;;;;;;31.55;13.95;;;3.10;99.90;;;;;;5071361;28;20051;-51
2023/01/03 00:42:08;;;;;;;33.08;14.93;;;3.30;99.90;;;;;;5071260;28;20115;-50
2023/01/03 00:44:34;;;;;;;33.35;14.30;;;3.30;99.90;;;;;;5070022;28;20477;-48
2023/01/03 00:47:00;;;;;;;33.03;15.65;;;2.90;99.90;;;;;;5069859;28;20043;-48
2023/01/03 00:49:26;;;;;;;32.67;14.98;;;3.40;99.90;;;;;;5070771;28;20037;-49
2023/01/03 00:51:55;;;;;;;36.25;15.63;;;2.70;99.90;;;;;;5070362;28;20115;-50
2023/01/03 00:54:21;;;;;;;37.53;15.02;;;3.00;99.90;;;;;;5071540;28;20036;-47
2023/01/03 00:56:48;;;;;;;34.92;16.13;;;2.90;99.90;;;;;;5070891;28;20472;-47
2023/01/03 00:59:15;;;;;;;28.77;14.20;;;3.30;99.90;;;;;;5083258;28;20116;-49
2023/01/03 01:01:52;;;;;;;36.55;15.57;;;2.90;99.90;;;;;;5070914;28;20052;-46
2023/01/03 01:04:24;;;;;;;27.10;13.60;;;2.80;99.90;;;;;;5071068;28;20039;-47
2023/01/03 01:07:01;;;;;;;31.40;14.90;;;2.70;99.90;;;;;;5069559;28;20039;-49
2023/01/03 01:09:32;;;;;;;35.67;16.25;;;3.20;99.90;;;;;;5071473;28;20515;-48
2023/01/03 01:11:58;;;;;;;39.25;16.60;;;3.20;99.90;;;;;;5070469;28;20044;-53
2023/01/03 01:14:26;;;;;;;41.08;17.08;;;3.40;99.90;;;;;;5070580;28;20248;-50
2023/01/03 01:17:04;;;;;;;42.90;18.85;;;3.00;99.90;;;;;;5077288;28;20067;-49
2023/01/03 01:19:41;;;;;;;49.72;18.98;;;2.80;99.90;;;;;;5072400;28;20044;-47
2023/01/03 01:22:08;;;;;;;50.42;19.77;;;2.90;99.90;;;;;;5073220;28;20039;-51
2023/01/03 01:24:33;;;;;;;52.00;18.65;;;2.60;99.90;;;;;;5081853;28;20479;-48
2023/01/03 01:26:59;;;;;;;49.33;18.65;;;2.60;99.90;;;;;;5072833;28;20105;-54
2023/01/03 01:29:25;;;;;;;51.47;20.05;;;3.40;99.90;;;;;;5070417;28;20035;-51
2023/01/03 01:31:51;;;;;;;48.88;20.92;;;2.60;99.90;;;;;;5070520;28;20379;-48
2023/01/03 01:34:17;;;;;;;48.75;19.95;;;2.60;99.90;;;;;;5083817;28;20036;-50
2023/01/03 01:36:44;;;;;;;55.13;20.80;;;3.20;99.90;;;;;;5070146;28;20094;-51
2023/01/03 01:39:15;;;;;;;60.25;21.55;;;2.90;99.90;;;;;;5070291;28;20535;-51
2023/01/03 01:44:46;;;;;;;48.47;20.55;;;2.80;99.90;;;;;;5073367;28;20041;-49
2023/01/03 01:47:22;;;;;;;55.60;20.70;;;3.00;99.90;;;;;;5070422;28;20131;-54
2023/01/03 01:49:54;;;;;;;44.50;19.65;;;2.50;99.90;;;;;;5068467;28;20143;-47
2023/01/03 01:52:21;;;;;;;51.63;20.73;;;2.50;99.90;;;;;;5076875;28;20542;-48
2023/01/03 01:54:49;;;;;;;67.38;21.48;;;2.40;99.90;;;;;;5074713;28;20080;-48
2023/01/03 01:57:20;;;;;;;55.47;21.08;;;2.90;99.90;;;;;;5080981;28;20040;-47
2023/01/03 01:59:46;;;;;;;64.80;22.67;;;2.70;99.90;;;;;;5079132;28;20272;-49
2023/01/03 02:02:17;;;;;;;57.83;22.80;;;2.80;99.90;;;;;;5069849;28;20119;-48
2023/01/03 02:04:44;;;;;;;60.40;23.83;;;3.10;99.90;;;;;;5079016;28;20115;-49
2023/01/03 02:07:09;;;;;;;54.38;22.17;;;3.10;99.90;;;;;;5080695;28;20039;-51
2023/01/03 02:09:35;;;;;;;66.93;24.92;;;2.70;99.90;;;;;;5071240;28;20395;-48
2023/01/03 02:15:22;;;;;;;61.78;24.05;;;3.20;99.90;;;;;;5075214;28;20456;-50
2023/01/03 02:18:19;;;;;;;72.78;24.65;;;3.00;99.90;;;;;;5069987;28;20039;-49
2023/01/03 02:20:47;;;;;;;68.82;22.88;;;3.00;99.90;;;;;;5070269;28;20040;-49
2023/01/03 02:23:27;;;;;;;63.20;24.48;;;3.00;99.90;;;;;;5071209;28;20480;-52
2023/01/03 02:26:15;;;;;;;59.85;23.13;;;2.40;99.90;;;;;;5074046;28;20056;-50
2023/01/03 02:28:55;;;;;;;66.28;23.70;;;2.90;99.90;;;;;;5073944;28;20044;-51
2023/01/03 02:31:40;;;;;;;62.28;24.23;;;2.80;99.90;;;;;;5078231;28;20067;-50
2023/01/03 02:34:41;;;;;;;65.10;23.67;;;2.90;99.90;;;;;;5073634;28;20034;-49
2023/01/03 02:37:33;;;;;;;72.03;25.70;;;2.20;99.90;;;;;;5049421;28;20080;-47
2023/01/03 02:40:11;;;;;;;68.18;24.33;;;2.70;99.90;;;;;;5073981;28;20071;-50
2023/01/03 02:43:06;;;;;;;66.55;25.08;;;2.60;99.90;;;;;;5072850;28;20090;-50
2023/01/03 02:46:03;;;;;;;64.60;24.58;;;2.90;99.90;;;;;;5073458;28;20476;-49
2023/01/03 02:48:51;;;;;;;63.72;25.00;;;2.80;99.90;;;;;;5074750;28;20130;-47
2023/01/03 02:51:32;;;;;;;57.72;23.00;;;2.30;99.90;;;;;;5051746;28;20070;-50
2023/01/03 02:53:59;;;;;;;68.20;24.70;;;2.60;99.90;;;;;;5073296;28;20407;-48
2023/01/03 02:56:33;;;;;;;70.95;25.67;;;2.60;99.90;;;;;;5073250;28;20576;-48
2023/01/03 02:59:03;;;;;;;67.82;23.58;;;2.60;99.90;;;;;;5075498;28;20376;-47
2023/01/03 03:01:30;;;;;;;58.80;24.17;;;2.50;99.90;;;;;;5073683;28;20467;-50
2023/01/03 03:03:57;;;;;;;62.75;24.08;;;2.80;99.90;;;;;;5083308;28;20036;-48
2023/01/03 03:06:33;;;;;;;62.30;23.85;;;2.50;99.90;;;;;;5073081;28;20066;-48
2023/01/03 03:08:58;;;;;;;63.25;23.10;;;2.80;99.90;;;;;;5073154;28;20041;-48
2023/01/03 03:14:37;;;;;;;60.55;24.23;;;2.20;99.90;;;;;;5081417;28;20048;-49
2023/01/03 03:17:07;;;;;;;65.05;24.02;;;2.00;99.90;;;;;;5078925;28;20391;-50
2023/01/03 03:25:48;;;;;;;60.58;22.27;;;2.10;99.90;;;;;;5071938;28;20048;-48
2023/01/03 03:28:35;;;;;;;61.25;21.40;;;2.10;99.90;;;;;;5072658;28;20052;-49
2023/01/03 03:31:16;;;;;;;63.25;21.60;;;2.50;99.90;;;;;;5072639;28;20139;-48
2023/01/03 03:33:48;;;;;;;58.35;22.27;;;1.80;99.90;;;;;;5071604;28;20484;-49
2023/01/03 03:36:34;;;;;;;56.28;21.73;;;1.80;99.90;;;;;;5077226;28;20787;-46
2023/01/03 03:39:01;;;;;;;54.38;22.25;;;2.00;99.90;;;;;;5072574;28;20062;-51
2023/01/03 03:47:52;;;;;;;55.92;21.85;;;2.50;99.90;;;;;;5072292;28;20041;-49
2023/01/03 03:50:24;;;;;;;59.65;21.42;;;2.30;99.90;;;;;;5072235;28;20063;-50
2023/01/03 03:52:56;;;;;;;59.67;23.63;;;2.40;99.90;;;;;;5074702;28;20456;-50
2023/01/03 03:55:29;;;;;;;59.63;22.80;;;3.50;99.90;;;;;;5072507;28;20109;-49
2023/01/03 03:58:15;;;;;;;58.95;21.63;;;2.50;99.90;;;;;;5072259;28;20036;-47
2023/01/03 04:00:43;;;;;;;54.65;21.70;;;1.90;99.90;;;;;;5081653;28;20079;-49
2023/01/03 04:03:10;;;;;;;58.65;21.73;;;2.30;99.90;;;;;;5076232;28;20031;-50
2023/01/03 04:05:43;;;;;;;51.42;20.52;;;2.50;99.90;;;;;;5072233;28;20094;-48
2023/01/03 04:08:09;;;;;;;59.03;22.05;;;1.80;99.90;;;;;;5070430;28;20036;-51
2023/01/03 04:10:36;;;;;;;56.97;22.83;;;2.10;99.90;;;;;;5071823;28;20036;-49
2023/01/03 04:13:01;;;;;;;62.80;22.30;;;2.20;99.90;;;;;;5083132;28;20396;-50
2023/01/03 04:15:27;;;;;;;57.42;23.60;;;2.40;99.90;;;;;;5072037;28;20036;-51
2023/01/03 04:17:53;;;;;;;58.53;22.50;;;2.50;99.90;;;;;;5071386;28;20391;-48
2023/01/03 04:20:18;;;;;;;61.65;22.42;;;2.20;99.90;;;;;;5071971;28;20119;-48
2023/01/03 04:22:44;;;;;;;59.08;23.63;;;1.80;99.90;;;;;;5070456;28;20039;-50
2023/01/03 04:25:10;;;;;;;57.47;22.58;;;1.90;99.90;;;;;;5071592;28;20041;-48
2023/01/03 04:27:36;;;;;;;60.40;23.75;;;1.70;99.90;;;;;;5072138;28;20048;-50
2023/01/03 04:30:02;;;;;;;66.85;23.75;;;2.20;99.90;;;;;;5070278;28;20093;-49
2023/01/03 04:32:28;;;;;;;64.13;23.33;;;1.90;99.90;;;;;;5080790;28;20127;-46
2023/01/03 04:34:53;;;;;;;65.97;24.40;;;2.30;99.90;;;;;;5072647;28;20622;-50
2023/01/03 04:37:19;;;;;;;56.92;23.58;;;2.50;99.90;;;;;;5086108;28;20032;-48
2023/01/03 04:39:45;;;;;;;62.22;22.83;;;2.60;99.90;;;;;;5070114;28;20032;-50
2023/01/03 04:44:55;;;;;;;64.55;23.95;;;2.60;99.90;;;;;;5073603;28;20040;-51
2023/01/03 04:47:21;;;;;;;61.50;23.40;;;2.50;99.90;;;;;;5080219;28;20483;-52
2023/01/03 04:49:47;;;;;;;60.38;24.60;;;2.50;99.90;;;;;;5091835;28;20092;-51
2023/01/03 04:52:15;;;;;;;61.67;24.35;;;2.60;99.90;;;;;;5079810;28;20047;-48
2023/01/03 04:54:41;;;;;;;58.53;24.67;;;2.60;99.90;;;;;;5070679;28;20040;-50
2023/01/03 04:57:08;;;;;;;64.53;24.27;;;2.60;99.90;;;;;;5071112;28;20074;-49
2023/01/03 04:59:35;;;;;;;61.65;24.55;;;1.90;99.90;;;;;;5069424;28;20043;-49
2023/01/03 05:02:02;;;;;;;65.65;24.42;;;2.00;99.90;;;;;;5071350;28;20166;-49
2023/01/03 05:04:28;;;;;;;57.10;22.70;;;2.40;99.90;;;;;;5071768;28;20182;-48
2023/01/03 05:06:57;;;;;;;57.38;23.13;;;1.80;99.90;;;;;;5071144;28;20040;-52
2023/01/03 05:09:25;;;;;;;59.40;24.67;;;2.20;99.90;;;;;;5070767;28;20048;-48
2023/01/03 05:11:51;;;;;;;61.03;23.95;;;2.60;99.90;;;;;;5076406;28;20036;-48
2023/01/03 05:14:17;;;;;;;59.63;23.67;;;2.90;99.90;;;;;;5073201;28;20048;-48
2023/01/03 05:16:42;;;;;;;55.67;24.02;;;1.70;99.90;;;;;;5071110;28;20040;-48
2023/01/03 05:19:08;;;;;;;56.50;23.67;;;2.50;99.90;;;;;;5070114;28;20039;-49
2023/01/03 05:27:04;;;;;;;56.15;21.17;;;2.40;99.90;;;;;;5073977;28;20076;-49
2023/01/03 05:29:31;;;;;;;53.45;22.38;;;1.70;99.90;;;;;;5080916;28;20415;-47
2023/01/03 05:31:57;;;;;;;52.42;20.77;;;1.50;99.90;;;;;;5069840;28;20044;-47
2023/01/03 05:34:22;;;;;;;56.28;23.10;;;2.00;99.90;;;;;;5079053;28;20107;-47
2023/01/03 05:36:48;;;;;;;49.17;22.02;;;1.80;99.90;;;;;;5072080;28;20041;-48
2023/01/03 05:39:14;;;;;;;52.75;22.55;;;1.80;99.90;;;;;;5070098;28;20036;-49
2023/01/03 05:41:58;;;;;;;55.53;23.75;;;2.10;99.90;;;;;;5069949;28;20033;-46
2023/01/03 05:44:24;;;;;;;52.35;22.85;;;1.60;99.90;;;;;;5080236;28;20038;-48
2023/01/03 05:46:49;;;;;;;50.60;22.92;;;1.50;99.90;;;;;;5071490;28;20114;-50
2023/01/03 05:49:15;;;;;;;53.28;22.85;;;2.20;99.90;;;;;;5068768;28;20132;-49
2023/01/03 05:51:41;;;;;;;52.63;23.58;;;1.40;99.90;;;;;;5073648;28;20040;-49
2023/01/03 05:54:07;;;;;;;60.13;24.98;;;1.40;99.90;;;;;;5077960;28;20040;-49
2023/01/03 05:56:32;;;;;;;55.17;24.35;;;1.80;99.90;;;;;;5069692;28;20040;-48
2023/01/03 05:58:59;;;;;;;56.38;26.48;;;2.20;99.90;;;;;;5070023;28;20043;-50
2023/01/03 06:01:27;;;;;;;57.65;26.35;;;2.10;99.90;;;;;;5078505;28;20036;-47
2023/01/03 06:03:52;;;;;;;54.65;26.55;;;1.40;99.90;;;;;;5076283;28;20123;-47
2023/01/03 06:06:18;;;;;;;60.40;28.00;;;2.00;99.90;;;;;;5072255;28;20127;-51
2023/01/03 06:08:44;;;;;;;68.53;26.67;;;2.20;99.90;;;;;;5076462;28;20567;-47
2023/01/03 06:11:14;;;;;;;69.95;28.25;;;1.50;99.90;;;;;;5073461;28;20110;-48
2023/01/03 06:13:40;;;;;;;79.63;28.98;;;2.10;99.90;;;;;;5077254;28;20446;-51
2023/01/03 06:18:57;;;;;;;129.63;27.98;;;1.30;99.90;;;;;;5082889;28;20079;-47
2023/01/03 06:21:23;;;;;;;109.35;27.67;;;1.90;99.90;;;;;;5069263;28;20040;-51
2023/01/03 06:23:48;;;;;;;76.65;24.48;;;1.20;99.90;;;;;;5078159;28;20032;-50
2023/01/03 06:26:16;;;;;;;91.72;24.33;;;1.90;99.90;;;;;;5069682;28;20059;-50
2023/01/03 06:28:41;;;;;;;93.60;23.60;;;1.70;99.90;;;;;;5069596;28;20050;-47
2023/01/03 06:31:09;;;;;;;80.97;22.05;;;1.20;99.90;;;;;;5069684;28;20040;-50
2023/01/03 06:33:35;;;;;;;109.28;23.52;;;1.70;99.90;;;;;;5074402;28;20039;-52
2023/01/03 06:36:05;;;;;;;121.32;20.30;;;1.10;99.90;;;;;;5080907;28;20048;-46
2023/01/03 06:38:32;;;;;;;163.43;22.73;;;1.60;99.90;;;;;;5070079;28;20472;-51
2023/01/03 06:40:58;;;;;;;99.68;19.60;;;1.80;99.90;;;;;;5072140;28;20045;-49
2023/01/03 06:43:24;;;;;;;160.95;22.45;;;1.30;99.90;;;;;;5069808;28;20047;-49
2023/01/03 06:54:18;;;;;;;255.38;27.33;;;1.80;99.90;;;;;;5078186;28;20040;-47
2023/01/03 06:56:43;;;;;;;204.50;27.38;;;1.60;99.90;;;;;;5072067;28;20048;-48
2023/01/03 06:59:09;;;;;;;228.25;27.85;;;2.40;99.90;;;;;;5072894;28;20037;-52
2023/01/03 07:01:35;;;;;;;234.73;29.55;;;1.80;99.90;;;;;;5071003;28;20395;-51
2023/01/03 07:04:02;;;;;;;375.42;34.08;;;2.20;99.90;;;;;;5075198;28;20471;-50
2023/01/03 07:06:27;;;;;;;247.05;29.33;;;2.60;99.90;;;;;;5089961;28;20047;-51
2023/01/03 07:08:54;;;;;;;333.02;32.30;;;2.70;99.90;;;;;;5080585;28;20519;-49
2023/01/03 07:11:22;;;;;;;366.33;35.67;;;2.90;99.90;;;;;;5073127;28;20071;-52
2023/01/03 07:13:57;;;;;;;367.33;34.25;;;2.10;99.90;;;;;;5077475;28;20039;-48
2023/01/03 07:16:34;;;;;;;287.42;35.53;;;2.40;99.90;;;;;;5082726;28;20040;-49
2023/01/03 07:19:01;;;;;;;385.48;40.53;;;2.50;99.90;;;;;;5092042;28;20200;-50
2023/01/03 07:21:29;;;;;;;315.55;38.38;;;3.10;99.90;;;;;;5093082;28;20093;-50
2023/01/03 07:23:56;;;;;;;382.73;40.25;;;3.40;99.90;;;;;;5075579;28;20429;-48
2023/01/03 07:26:23;;;;;;;328.67;40.08;;;3.10;99.90;;;;;;5072490;28;20044;-49
2023/01/03 07:28:49;;;;;;;304.33;39.80;;;3.30;99.90;;;;;;5072498;28;20403;-50
2023/01/03 07:31:15;;;;;;;193.10;34.97;;;3.30;99.90;;;;;;5073002;28;20093;-49
2023/01/03 07:33:41;;;;;;;194.70;39.28;;;3.60;99.90;;;;;;5073372;28;20476;-49
2023/01/03 07:36:09;;;;;;;201.38;41.25;;;3.70;99.90;;;;;;5072484;28;20079;-49
2023/01/03 07:38:36;;;;;;;169.00;38.17;;;3.10;99.90;;;;;;5073023;28;20478;-47
2023/01/03 07:41:02;;;;;;;169.77;38.63;;;3.60;99.90;;;;;;5086568;28;20088;-50
2023/01/03 07:43:37;;;;;;;209.60;45.17;;;3.80;99.90;;;;;;5071992;28;20062;-46
2023/01/03 07:46:15;;;;;;;168.05;40.92;;;3.60;99.90;;;;;;5072613;28;20037;-48
2023/01/03 07:48:42;;;;;;;173.20;40.30;;;3.80;99.90;;;;;;5071990;28;20072;-48
2023/01/03 07:51:10;;;;;;;171.73;43.30;;;3.90;99.90;;;;;;5074433;28;20047;-50
2023/01/03 07:53:36;;;;;;;146.50;41.90;;;3.40;99.90;;;;;;5068519;28;20033;-46
2023/01/03 07:56:14;;;;;;;181.48;44.92;;;4.00;99.90;;;;;;5071260;28;20047;-50
2023/01/03 07:58:41;;;;;;;160.70;43.25;;;4.30;99.90;;;;;;5068716;28;20483;-48
2023/01/03 08:01:13;;;;;;;155.82;44.35;;;4.40;99.90;;;;;;5069931;28;20040;-47
2023/01/03 08:03:41;;;;;;;164.30;43.05;;;4.40;99.90;;;;;;5065978;28;20043;-48
2023/01/03 08:06:10;;;;;;;180.27;47.40;;;4.40;99.90;;;;;;5068491;28;20040;-50
2023/01/03 08:08:36;;;;;;;164.48;44.35;;;4.20;99.90;;;;;;5065478;28;20052;-48
2023/01/03 08:13:47;;;;;;;146.65;44.42;;;3.60;99.90;;;;;;5060431;28;20450;-48
2023/01/03 08:16:15;;;;;;;169.65;48.05;;;3.70;99.90;;;;;;5060808;28;20461;-49
2023/01/03 08:18:42;;;;;;;145.77;43.70;;;4.50;99.90;;;;;;5061290;28;20033;-51
2023/01/03 08:21:10;;;;;;;191.73;48.70;;;4.50;99.90;;;;;;5060251;28;20045;-51
2023/01/03 08:23:36;;;;;;;180.60;49.75;;;3.60;99.90;;;;;;5060722;28;20020;-49
2023/01/03 08:26:07;;;;;;;193.60;49.65;;;4.60;99.90;;;;;;5061506;28;20087;-48
2023/01/03 08:28:33;;;;;;;158.77;47.25;;;4.60;99.90;;;;;;5061404;28;20044;-49
2023/01/03 08:31:04;;;;;;;193.40;47.92;;;4.00;99.90;;;;;;5064171;28;20115;-48
2023/01/03 08:33:37;;;;;;;155.30;45.58;;;3.70;99.90;;;;;;5059458;28;20345;-52
2023/01/03 08:36:05;;;;;;;164.02;46.00;;;4.70;99.90;;;;;;5060175;28;20391;-47
2023/01/03 08:38:40;;;;;;;177.85;48.42;;;4.30;99.90;;;;;;5061106;28;20115;-51
2023/01/03 08:41:08;;;;;;;;;;;3.60;99.90;;;;;;5061640;28;20044;-51
2023/01/03 08:43:37;;;;;;;174.88;45.47;;;4.30;99.90;;;;;;5060847;28;20378;-49
2023/01/03 08:46:06;;;;;;;180.50;49.53;;;3.90;99.90;;;;;;5059071;28;20510;-48
2023/01/03 08:48:33;;;;;;;197.10;51.53;;;4.50;99.90;;;;;;5059713;28;20495;-48
2023/01/03 08:51:00;;;;;;;201.93;51.83;;;4.50;99.90;;;;;;5058285;28;20410;-51
2023/01/03 08:53:27;;;;;;;180.27;50.30;;;4.50;99.90;;;;;;5057787;28;20042;-48
2023/01/03 08:55:53;;;;;;;188.32;52.90;;;3.70;99.90;;;;;;5058256;28;20411;-48
2023/01/03 08:58:19;;;;;;;229.13;53.97;;;3.70;99.90;;;;;;5060949;28;20118;-46
2023/01/03 09:00:45;;;;;;;204.73;56.40;;;4.30;99.90;;;;;;5061871;28;20040;-50
2023/01/03 09:03:11;;;;;;;214.43;56.72;;;3.80;99.90;;;;;;5059884;28;20044;-50
2023/01/03 09:05:36;;;;;;;207.15;55.30;;;4.70;99.90;;;;;;5057192;28;20122;-49
2023/01/03 09:08:02;;;;;;;208.75;58.88;;;4.10;99.90;;;;;;5058574;28;21054;-51
2023/01/03 09:10:28;;;;;;;183.43;54.15;;;4.80;99.90;;;;;;5058245;28;20638;-53
2023/01/03 09:12:53;;;;;;;190.95;55.13;;;4.60;99.90;;;;;;5059394;28;20483;-49
2023/01/03 09:15:20;;;;;;;204.18;58.38;;;4.90;99.90;;;;;;5060432;28;20060;-49
2023/01/03 09:17:48;;;;;;;209.00;59.70;;;5.10;99.90;;;;;;5060896;28;20068;-49
2023/01/03 09:20:15;;;;;;;210.15;58.35;;;4.30;99.90;;;;;;5058057;28;20040;-50
2023/01/03 09:22:40;;;;;;;199.57;59.50;;;4.50;99.90;;;;;;5058781;28;20140;-50
2023/01/03 09:25:07;;;;;;;193.23;55.78;;;4.40;99.90;;;;;;5059523;28;20479;-51
2023/01/03 09:27:34;;;;;;;182.25;55.03;;;4.10;99.90;;;;;;5059621;28;20574;-51
2023/01/03 09:30:00;;;;;;;187.98;55.67;;;4.90;99.90;;;;;;5058374;28;20053;-47
2023/01/03 09:32:25;;;;;;;183.88;56.08;;;5.30;99.90;;;;;;5058357;28;20391;-50
2023/01/03 09:34:51;;;;;;;204.93;57.78;;;4.80;99.90;;;;;;5058173;28;20039;-48
2023/01/03 09:37:17;;;;;;;192.75;57.25;;;4.40;99.90;;;;;;5061512;28;20844;-50
2023/01/03 09:39:43;;;;;;;186.60;55.58;;;3.90;99.90;;;;;;5059775;28;20032;-52
2023/01/03 09:45:06;;;;;;;183.02;53.97;;;4.90;99.90;;;;;;5060050;28;20044;-51
2023/01/03 09:47:35;;;;;;;194.30;57.53;;;5.20;99.90;;;;;;5057217;28;20099;-50
2023/01/03 09:50:01;;;;;;;202.13;59.47;;;4.70;99.90;;;;;;5058064;28;20119;-52
2023/01/03 10:05:13;;;;;;;166.90;54.28;;;5.10;99.90;;;;;;5056289;28;20511;-50
2023/01/03 10:08:23;;;;;;;175.75;57.53;;;5.20;99.90;;;;;;5038144;28;20518;-49
2023/01/03 10:11:06;;;;;;;171.20;55.55;;;4.80;99.90;;;;;;5046674;28;20122;-48
2023/01/03 10:13:55;;;;;;;185.40;57.42;;;4.90;99.90;;;;;;5048912;28;20048;-47
2023/01/03 10:16:46;;;;;;;154.75;53.13;;;4.90;99.90;;;;;;5066367;28;20033;-48
2023/01/03 10:19:33;;;;;;;135.93;47.40;;;5.60;99.90;;;;;;5066902;28;20040;-52
2023/01/03 10:22:17;;;;;;;108.28;45.20;;;5.70;99.90;;;;;;5069208;28;20364;-48
2023/01/03 10:25:07;;;;;;;108.72;45.85;;;5.90;99.90;;;;;;5069572;28;20076;-46
2023/01/03 10:27:48;;;;;;;109.18;47.75;;;5.80;99.90;;;;;;5070067;28;20581;-52
2023/01/03 10:30:20;;;;;;;88.50;42.17;;;5.90;99.90;;;;;;5067375;28;20040;-53
2023/01/03 10:33:07;;;;;;;92.93;45.53;;;6.00;99.90;;;;;;5067884;28;20047;-47
2023/01/03 10:35:34;;;;;;;90.07;44.75;;;5.70;99.90;;;;;;5068304;28;20114;-50
2023/01/03 10:38:01;;;;;;;91.78;44.33;;;5.10;99.90;;;;;;5066977;28;20036;-51
2023/01/03 10:40:52;;;;;;;85.15;43.17;;;5.70;99.90;;;;;;5068843;28;20032;-51
2023/01/03 10:43:37;;;;;;;84.95;42.50;;;5.10;99.90;;;;;;5069596;28;20476;-49
2023/01/03 10:46:20;;;;;;;86.95;43.58;;;5.20;99.90;;;;;;5072108;28;20036;-50
2023/01/03 10:48:49;;;;;;;93.75;43.75;;;5.20;99.90;;;;;;5071665;28;20097;-46
2023/01/03 10:51:39;;;;;;;86.22;41.63;;;6.30;99.90;;;;;;5070200;28;20040;-48
2023/01/03 10:54:17;;;;;;;83.43;41.90;;;5.80;99.90;;;;;;5075411;28;20040;-46
2023/01/03 10:56:44;;;;;;;73.70;40.00;;;6.00;99.90;;;;;;5065616;28;20033;-48
2023/01/03 10:59:30;;;;;;;81.70;39.75;;;6.00;99.90;;;;;;5072126;28;20093;-50
2023/01/03 11:01:56;;;;;;;75.72;38.30;;;6.20;99.90;;;;;;5071951;28;20072;-47
2023/01/03 11:04:22;;;;;;;79.43;38.97;;;5.50;99.90;;;;;;5074392;28;20075;-50
2023/01/03 11:07:07;;;;;;;77.78;38.60;;;5.90;99.90;;;;;;5083328;28;20035;-48
2023/01/03 11:09:42;;;;;;;76.07;39.53;;;6.30;99.90;;;;;;5073150;28;20037;-48
2023/01/03 11:12:38;;;;;;;74.45;38.65;;;5.80;99.90;;;;;;5072789;28;20047;-46
2023/01/03 11:15:35;;;;;;;74.75;38.25;;;5.50;99.90;;;;;;5075473;28;20055;-47
2023/01/03 11:18:03;;;;;;;71.55;37.58;;;5.70;99.90;;;;;;5073096;28;20039;-47
2023/01/03 11:20:41;;;;;;;86.53;40.60;;;5.70;99.90;;;;;;5077925;28;20028;-50
2023/01/03 11:23:39;;;;;;;78.30;39.05;;;6.50;99.90;;;;;;5072113;28;20056;-45
2023/01/03 11:26:17;;;;;;;74.57;37.65;;;5.90;99.90;;;;;;5072744;28;20450;-50
2023/01/03 11:28:56;;;;;;;74.97;37.22;;;6.50;99.90;;;;;;5072197;28;20131;-49
2023/01/03 11:31:24;;;;;;;70.47;35.53;;;6.40;99.90;;;;;;5073052;28;20134;-49
2023/01/03 11:34:26;;;;;;;75.10;34.65;;;5.70;99.90;;;;;;5068029;28;20042;-48
2023/01/03 11:37:21;;;;;;;77.03;35.05;;;6.60;99.90;;;;;;5066302;28;20049;-49
2023/01/03 11:40:07;;;;;;;73.55;35.95;;;6.30;99.90;;;;;;5065653;28;20036;-48
2023/01/03 11:43:01;;;;;;;75.18;34.85;;;6.40;99.90;;;;;;5065803;28;20036;-48
2023/01/03 11:45:39;;;;;;;79.55;35.45;;;5.90;99.90;;;;;;5063374;28;20040;-47
2023/01/03 11:48:34;;;;;;;70.95;34.53;;;6.00;99.90;;;;;;5068539;28;20403;-46
2023/01/03 11:51:22;;;;;;;76.75;33.83;;;6.40;99.90;;;;;;5070497;28;20106;-44
2023/01/03 11:54:04;;;;;;;77.35;35.50;;;5.90;99.90;;;;;;5079260;28;20048;-49
2023/01/03 11:56:55;;;;;;;77.65;35.72;;;6.50;99.90;;;;;;5071997;28;20036;-48
2023/01/03 11:59:51;;;;;;;73.50;34.67;;;5.90;99.90;;;;;;5068471;28;20094;-48
2023/01/03 12:02:44;;;;;;;83.63;33.67;;;6.10;99.90;;;;;;5070710;28;20049;-49
2023/01/03 12:05:28;;;;;;;66.35;33.10;;;6.60;99.90;;;;;;5070629;28;20041;-50
2023/01/03 12:07:59;;;;;;;;;;;6.30;99.90;;;;;;5081806;28;20593;-48
2023/01/03 12:10:50;;;;;;;70.68;32.08;;;6.70;99.90;;;;;;5075666;28;19923;-47
2023/01/03 12:13:57;;;;;;;67.13;31.25;;;6.60;99.90;;;;;;5079875;28;20550;-50
2023/01/03 12:16:44;;;;;;;68.30;31.55;;;6.10;99.90;;;;;;5016828;28;20165;-49
2023/01/03 12:19:21;;;;;;;71.00;32.75;;;6.10;99.90;;;;;;5074150;28;20040;-50
2023/01/03 12:21:55;;;;;;;63.25;31.08;;;6.30;99.90;;;;;;5080409;28;20596;-46
2023/01/03 12:24:59;;;;;;;74.18;33.47;;;6.30;99.90;;;;;;5071568;28;20115;-49
2023/01/03 12:27:34;;;;;;;67.35;31.30;;;6.30;99.90;;;;;;5012098;28;20095;-49
2023/01/03 12:30:05;;;;;;;73.15;32.08;;;6.40;99.90;;;;;;5017750;28;20117;-49
2023/01/03 12:32:41;;;;;;;64.03;30.80;;;6.90;99.90;;;;;;5053829;28;20089;-50
2023/01/03 12:35:26;;;;;;;65.15;31.05;;;6.70;99.90;;;;;;5078545;28;20364;-46
2023/01/03 12:37:51;;;;;;;;;;;6.70;99.90;;;;;;5071968;28;20133;-53
2023/01/03 12:40:47;;;;;;;65.60;29.55;;;6.20;99.90;;;;;;5071761;28;19955;-50
2023/01/03 12:43:30;;;;;;;57.58;28.90;;;6.40;99.90;;;;;;5076015;28;20514;-52
2023/01/03 12:46:10;;;;;;;56.45;27.45;;;6.80;99.90;;;;;;5071055;28;20089;-48
2023/01/03 12:49:08;;;;;;;64.28;29.20;;;7.00;99.90;;;;;;5071181;28;20041;-47
2023/01/03 12:51:35;;;;;;;58.13;28.33;;;7.10;99.90;;;;;;5071416;28;20058;-51
2023/01/03 12:54:18;;;;;;;58.35;27.17;;;6.40;99.90;;;;;;5069571;28;20519;-48
2023/01/03 12:57:03;;;;;;;57.40;27.77;;;6.90;99.90;;;;;;5069694;28;20051;-49
2023/01/03 12:59:35;;;;;;;;;;;6.50;99.90;;;;;;5071334;28;20051;-51
2023/01/03 13:02:40;;;;;;;62.92;29.65;;;7.30;99.90;;;;;;5073242;28;20003;-50
2023/01/03 13:05:42;;;;;;;59.42;28.67;;;7.00;99.90;;;;;;5077722;28;20642;-49
2023/01/03 13:08:13;;;;;;;57.55;25.67;;;7.10;99.90;;;;;;5070801;28;20033;-46
2023/01/03 13:10:42;;;;;;;53.15;26.40;;;7.00;99.90;;;;;;5070915;28;20036;-49
2023/01/03 13:13:14;;;;;;;52.83;27.70;;;7.00;99.90;;;;;;5069558;28;20041;-46
2023/01/03 13:15:40;;;;;;;51.50;26.60;;;6.80;99.90;;;;;;5070487;28;20124;-49
2023/01/03 13:18:21;;;;;;;54.55;24.58;;;7.50;99.90;;;;;;5069646;28;20582;-49
2023/01/03 13:20:51;;;;;;;46.72;25.30;;;6.80;99.90;;;;;;5070609;28;20037;-47
2023/01/03 13:23:20;;;;;;;50.72;24.52;;;6.80;99.90;;;;;;5070159;28;20075;-48
2023/01/03 13:26:20;;;;;;;41.42;22.75;;;7.50;99.90;;;;;;5070057;28;20191;-48
2023/01/03 13:28:46;;;;;;;41.08;21.48;;;7.10;99.90;;;;;;5070540;28;20403;-46
2023/01/03 13:31:15;;;;;;;41.38;21.40;;;7.10;99.90;;;;;;5070817;28;20044;-47
2023/01/03 13:34:14;;;;;;;43.72;21.70;;;6.80;99.90;;;;;;5070479;28;20047;-47
2023/01/03 13:37:05;;;;;;;38.78;21.83;;;6.80;99.90;;;;;;5035119;28;20732;-48
2023/01/03 13:39:39;;;;;;;44.50;22.73;;;6.80;99.90;;;;;;5069508;28;20151;-47
2023/01/03 13:42:05;;;;;;;41.45;22.00;;;7.50;99.90;;;;;;5070963;28;20040;-49
2023/01/03 13:44:31;;;;;;;39.03;20.73;;;7.10;99.90;;;;;;5087019;28;20036;-50
2023/01/03 13:46:58;;;;;;;37.83;20.70;;;7.20;99.90;;;;;;5072231;28;20545;-51
2023/01/03 13:49:27;;;;;;;41.05;21.58;;;7.60;99.90;;;;;;5077333;28;20090;-48
2023/01/03 13:51:55;;;;;;;36.70;19.85;;;6.90;99.90;;;;;;5070023;28;20111;-51
2023/01/03 13:54:20;;;;;;;37.40;21.45;;;7.50;99.90;;;;;;5070467;28;20032;-48
2023/01/03 13:56:49;;;;;;;36.88;20.38;;;7.10;99.90;;;;;;5069940;28;20050;-51
2023/01/03 13:59:17;;;;;;;37.70;20.17;;;7.10;99.90;;;;;;5070140;28;20131;-48
2023/01/03 14:02:13;;;;;;;34.22;19.33;;;7.00;99.90;;;;;;5070088;28;20111;-49